Time;durP1;ratioP1;P1;durP2;ratioP2;P2;SDS_P1;SDS_P2;PMS_P1;PMS_P2;Temp;Humidity;BMP_temperature;BMP_pressure;BME280_temperature;BME280_humidity;BME280_pressure;Samples;Min_cycle;Max_cycle;Signal;HPM_P1;HPM_P2
2022/09/09 00:01:51;;;;;;;11.20;10.50;;;18.20;28.30;;;;;;5010337;28;20902;-55
2022/09/09 00:04:22;;;;;;;10.90;10.40;;;18.00;28.30;;;;;;5010962;28;20765;-52
2022/09/09 00:07:14;;;;;;;10.70;10.40;;;18.00;28.30;;;;;;5011976;28;20492;-53
2022/09/09 00:09:48;;;;;;;10.73;10.33;;;18.00;28.00;;;;;;5010543;28;20774;-54
2022/09/09 00:12:34;;;;;;;11.57;10.60;;;18.00;27.90;;;;;;5010777;28;20768;-50
2022/09/09 00:15:11;;;;;;;10.20;9.90;;;18.00;27.90;;;;;;5011527;28;20789;-52
2022/09/09 00:17:44;;;;;;;10.43;10.03;;;18.10;27.90;;;;;;5010555;28;20999;-50
2022/09/09 00:20:25;;;;;;;10.80;10.20;;;18.10;27.60;;;;;;5010886;28;20416;-50
2022/09/09 00:23:00;;;;;;;10.87;10.50;;;18.20;27.40;;;;;;5009422;28;20789;-49
2022/09/09 00:25:50;;;;;;;10.37;10.00;;;18.30;27.40;;;;;;5010188;28;20463;-49
2022/09/09 00:28:24;;;;;;;10.83;10.07;;;18.40;26.70;;;;;;5010333;28;20420;-51
2022/09/09 00:30:50;;;;;;;10.43;10.03;;;18.30;26.40;;;;;;5009979;28;20785;-50
2022/09/09 00:33:23;;;;;;;11.40;10.80;;;18.30;26.50;;;;;;5010348;28;20434;-51
2022/09/09 00:35:51;;;;;;;10.80;10.23;;;18.30;26.70;;;;;;5010239;28;20673;-52
2022/09/09 00:38:41;;;;;;;10.40;10.10;;;18.20;26.50;;;;;;5010529;28;20954;-50
2022/09/09 00:41:26;;;;;;;10.03;9.73;;;18.20;26.60;;;;;;5010908;28;20420;-51
2022/09/09 00:44:10;;;;;;;9.70;9.40;;;18.20;26.80;;;;;;5010212;28;20420;-50
2022/09/09 00:46:56;;;;;;;10.67;10.07;;;18.30;26.60;;;;;;5010758;28;20511;-49
2022/09/09 00:49:37;;;;;;;10.53;9.83;;;18.30;26.20;;;;;;5026922;28;20445;-49
2022/09/09 00:52:30;;;;;;;10.50;10.10;;;18.40;26.30;;;;;;5010690;28;20408;-50
2022/09/09 00:55:15;;;;;;;10.53;10.13;;;18.50;26.20;;;;;;5010444;28;20503;-49
2022/09/09 00:57:41;;;;;;;10.00;9.67;;;18.50;26.00;;;;;;5010542;28;20503;-51
2022/09/09 01:00:19;;;;;;;10.57;10.07;;;18.50;26.20;;;;;;5009798;28;20434;-51
2022/09/09 01:03:20;;;;;;;10.63;10.10;;;18.50;26.40;;;;;;5009762;28;20435;-49
2022/09/09 01:05:54;;;;;;;10.90;10.50;;;18.50;26.10;;;;;;5010185;28;20464;-51
2022/09/09 01:08:51;;;;;;;10.60;10.10;;;18.60;26.10;;;;;;5009749;28;20503;-49
2022/09/09 01:11:25;;;;;;;10.50;10.10;;;18.70;26.10;;;;;;5009845;28;20416;-49
2022/09/09 01:14:19;;;;;;;10.80;10.40;;;18.70;25.80;;;;;;5010645;28;20431;-48
2022/09/09 01:16:46;;;;;;;10.67;10.37;;;18.80;25.80;;;;;;5010649;28;20960;-50
2022/09/09 01:19:24;;;;;;;10.50;10.20;;;18.70;25.90;;;;;;5010693;28;20455;-50
2022/09/09 01:22:16;;;;;;;11.30;10.80;;;18.70;25.90;;;;;;5009400;28;20557;-50
2022/09/09 01:25:02;;;;;;;11.07;10.77;;;18.60;26.10;;;;;;5008997;28;20459;-49
2022/09/09 01:27:27;;;;;;;10.60;10.30;;;18.60;26.30;;;;;;5010034;28;20508;-54
2022/09/09 01:29:54;;;;;;;10.40;10.00;;;18.60;26.50;;;;;;5009096;28;20408;-49
2022/09/09 01:32:46;;;;;;;11.20;10.37;;;18.60;26.40;;;;;;5010146;28;20182;-51
2022/09/09 01:35:22;;;;;;;11.00;10.60;;;18.60;26.30;;;;;;5013906;28;20458;-50
2022/09/09 01:37:48;;;;;;;11.67;10.80;;;18.60;26.60;;;;;;5013678;28;20772;-49
2022/09/09 01:40:14;;;;;;;11.27;10.70;;;18.60;26.20;;;;;;5014097;28;20411;-53
2022/09/09 01:42:39;;;;;;;10.87;10.47;;;18.50;26.40;;;;;;5013777;28;20187;-49
2022/09/09 01:45:06;;;;;;;10.50;10.20;;;18.50;26.40;;;;;;5013613;28;20209;-51
2022/09/09 01:47:32;;;;;;;10.60;10.20;;;18.50;26.60;;;;;;5013552;28;20177;-50
2022/09/09 01:49:58;;;;;;;9.90;9.60;;;18.60;26.70;;;;;;5013301;28;20925;-50
2022/09/09 01:52:24;;;;;;;10.23;9.83;;;18.70;26.50;;;;;;5013716;28;20634;-54
2022/09/09 01:54:50;;;;;;;10.70;10.30;;;18.70;26.50;;;;;;5014049;28;20466;-52
2022/09/09 01:57:21;;;;;;;10.70;10.40;;;18.70;26.50;;;;;;5015920;28;20188;-53
2022/09/09 02:00:00;;;;;;;11.70;11.07;;;18.50;26.90;;;;;;5014387;28;20208;-49
2022/09/09 02:02:50;;;;;;;11.30;10.80;;;18.50;27.00;;;;;;5014602;28;20479;-52
2022/09/09 02:05:36;;;;;;;11.27;10.77;;;18.50;27.20;;;;;;5014314;28;20463;-52
2022/09/09 02:08:26;;;;;;;11.40;11.00;;;18.50;27.50;;;;;;5014349;28;20503;-52
2022/09/09 02:10:58;;;;;;;11.37;10.60;;;18.60;26.70;;;;;;5014048;28;20420;-51
2022/09/09 02:13:25;;;;;;;11.57;11.17;;;18.60;27.10;;;;;;5013185;28;20408;-51
2022/09/09 02:16:00;;;;;;;11.73;11.23;;;18.60;27.00;;;;;;5012907;28;20932;-49
2022/09/09 02:18:57;;;;;;;11.50;11.00;;;18.60;27.30;;;;;;5013259;28;20411;-50
2022/09/09 02:21:24;;;;;;;11.13;10.73;;;18.60;27.20;;;;;;5012924;28;20518;-51
2022/09/09 02:23:52;;;;;;;11.87;11.17;;;18.50;27.30;;;;;;5012997;28;20417;-49
2022/09/09 02:26:21;;;;;;;11.60;11.20;;;18.30;27.80;;;;;;5012054;28;20467;-57
2022/09/09 02:28:53;;;;;;;11.43;11.13;;;18.30;28.00;;;;;;5012854;28;20424;-50
2022/09/09 02:31:22;;;;;;;11.33;10.93;;;18.20;28.00;;;;;;5012805;28;20422;-50
2022/09/09 02:33:55;;;;;;;11.00;10.60;;;18.10;28.70;;;;;;5012681;28;20478;-50
2022/09/09 02:36:25;;;;;;;12.10;11.60;;;18.20;28.60;;;;;;5012348;28;20424;-52
2022/09/09 02:38:53;;;;;;;11.87;11.47;;;18.20;28.70;;;;;;5013960;28;20477;-49
2022/09/09 02:41:34;;;;;;;11.87;11.47;;;18.30;28.40;;;;;;5012690;28;20427;-52
2022/09/09 02:44:00;;;;;;;12.10;11.50;;;18.30;28.00;;;;;;5011544;28;20415;-50
2022/09/09 02:46:41;;;;;;;12.23;11.67;;;18.30;28.30;;;;;;5011788;28;20459;-51
2022/09/09 02:49:24;;;;;;;12.70;12.10;;;18.20;28.80;;;;;;5012220;28;20420;-52
2022/09/09 02:52:05;;;;;;;12.10;11.60;;;18.10;28.70;;;;;;5012200;28;20499;-53
2022/09/09 02:54:33;;;;;;;11.63;11.23;;;18.00;28.90;;;;;;5012232;28;20427;-53
2022/09/09 02:57:04;;;;;;;12.00;11.50;;;17.90;29.40;;;;;;5012174;28;20427;-53
2022/09/09 02:59:30;;;;;;;11.90;11.40;;;17.80;29.50;;;;;;5012296;28;20506;-53
2022/09/09 03:01:56;;;;;;;12.93;12.10;;;17.80;29.80;;;;;;5011873;28;20516;-54
2022/09/09 03:04:21;;;;;;;12.23;11.30;;;17.70;30.00;;;;;;5011689;28;20519;-55
2022/09/09 03:06:48;;;;;;;12.20;11.80;;;17.70;30.20;;;;;;5012450;28;20183;-54
2022/09/09 03:09:13;;;;;;;12.40;12.00;;;17.60;30.00;;;;;;5011798;28;20204;-49
2022/09/09 03:11:39;;;;;;;12.77;12.37;;;17.70;30.10;;;;;;5011515;28;20926;-50
2022/09/09 03:14:05;;;;;;;12.13;11.73;;;17.50;30.30;;;;;;5012004;28;20268;-51
2022/09/09 03:16:32;;;;;;;12.40;12.10;;;17.60;30.60;;;;;;5011651;28;20258;-50
2022/09/09 03:18:58;;;;;;;11.63;11.27;;;17.60;30.50;;;;;;5012049;28;20797;-53
2022/09/09 03:21:24;;;;;;;13.03;11.97;;;17.60;30.50;;;;;;5011971;28;20435;-49
2022/09/09 03:23:50;;;;;;;12.03;11.60;;;17.60;30.30;;;;;;5011874;28;20204;-50
2022/09/09 03:26:16;;;;;;;12.50;12.10;;;17.70;30.10;;;;;;5011148;28;20472;-50
2022/09/09 03:28:43;;;;;;;12.80;12.30;;;17.70;30.30;;;;;;5011129;28;20415;-54
2022/09/09 03:31:10;;;;;;;12.10;11.70;;;17.80;29.90;;;;;;5010883;28;20173;-49
2022/09/09 03:33:37;;;;;;;12.80;12.40;;;17.80;29.70;;;;;;5010558;28;20554;-51
2022/09/09 03:36:03;;;;;;;13.00;12.30;;;17.90;29.70;;;;;;5011118;28;20423;-49
2022/09/09 03:38:29;;;;;;;12.60;12.07;;;17.80;30.00;;;;;;5011171;28;20424;-49
2022/09/09 03:40:57;;;;;;;12.20;11.80;;;17.80;29.80;;;;;;5010853;28;20439;-52
2022/09/09 03:43:24;;;;;;;12.67;11.87;;;17.80;29.60;;;;;;5010357;28;20177;-51
2022/09/09 03:45:50;;;;;;;11.83;11.53;;;17.70;30.00;;;;;;5011026;28;20463;-53
2022/09/09 03:48:16;;;;;;;12.50;12.10;;;17.70;30.10;;;;;;5010675;28;20438;-51
2022/09/09 03:50:46;;;;;;;11.93;11.63;;;17.70;30.00;;;;;;5011015;28;20193;-51
2022/09/09 03:53:13;;;;;;;12.40;11.90;;;17.60;30.20;;;;;;5010743;28;20503;-53
2022/09/09 03:55:38;;;;;;;12.50;12.00;;;17.60;30.40;;;;;;5010649;28;20470;-52
2022/09/09 03:58:04;;;;;;;12.43;11.83;;;17.60;30.30;;;;;;5010523;28;20416;-51
2022/09/09 04:00:30;;;;;;;13.00;12.50;;;17.70;30.00;;;;;;5011117;28;20173;-51
2022/09/09 04:02:56;;;;;;;11.50;11.20;;;17.70;30.00;;;;;;5009865;28;20184;-52
2022/09/09 04:05:22;;;;;;;13.67;12.97;;;17.70;30.00;;;;;;5009934;28;20263;-52
2022/09/09 04:07:48;;;;;;;13.53;12.93;;;17.60;30.30;;;;;;5010241;28;20412;-54
2022/09/09 04:10:13;;;;;;;12.77;12.37;;;17.70;30.30;;;;;;5010054;28;20178;-52
2022/09/09 04:12:39;;;;;;;12.17;11.83;;;17.60;31.10;;;;;;5010313;28;20996;-53
2022/09/09 04:15:05;;;;;;;12.87;12.33;;;17.40;30.90;;;;;;5010817;28;20177;-53
2022/09/09 04:17:31;;;;;;;12.67;12.20;;;17.30;31.40;;;;;;5009550;28;20439;-52
2022/09/09 04:19:57;;;;;;;13.20;12.80;;;17.30;31.70;;;;;;5011258;28;20420;-51
2022/09/09 04:22:22;;;;;;;12.60;12.20;;;17.30;32.00;;;;;;5009237;28;20181;-53
2022/09/09 04:24:48;;;;;;;13.50;13.10;;;17.30;31.70;;;;;;5008936;28;20209;-51
2022/09/09 04:27:14;;;;;;;13.70;13.30;;;17.30;31.80;;;;;;5009779;28;20443;-53
2022/09/09 04:29:39;;;;;;;12.67;12.27;;;17.20;31.90;;;;;;5009840;28;20185;-58
2022/09/09 04:32:05;;;;;;;12.50;12.00;;;17.30;31.70;;;;;;5009799;28;20181;-53
2022/09/09 04:34:31;;;;;;;13.00;12.50;;;17.30;31.70;;;;;;5010093;28;20173;-50
2022/09/09 04:36:56;;;;;;;13.13;12.47;;;17.30;32.00;;;;;;5009788;28;20173;-52
2022/09/09 04:39:22;;;;;;;12.80;12.30;;;17.30;31.80;;;;;;5009710;28;20507;-49
2022/09/09 04:41:49;;;;;;;12.50;12.10;;;17.40;31.70;;;;;;5005846;28;20194;-64
2022/09/09 04:44:15;;;;;;;13.10;12.70;;;17.30;31.60;;;;;;5008781;28;20276;-54
2022/09/09 04:46:41;;;;;;;14.10;13.07;;;17.20;32.00;;;;;;5008912;28;20882;-53
2022/09/09 04:49:07;;;;;;;13.20;12.60;;;17.30;32.00;;;;;;5022915;28;20498;-52
2022/09/09 04:51:32;;;;;;;14.17;13.47;;;17.30;31.80;;;;;;5029002;28;20586;-54
2022/09/09 04:53:58;;;;;;;13.07;12.40;;;17.30;31.90;;;;;;5028774;28;20172;-52
2022/09/09 04:56:26;;;;;;;13.10;12.60;;;17.30;32.10;;;;;;5029331;28;20622;-52
2022/09/09 04:58:52;;;;;;;12.23;11.83;;;17.30;32.30;;;;;;5029275;28;20181;-53
2022/09/09 05:01:21;;;;;;;13.77;13.27;;;17.20;32.30;;;;;;5029054;28;20407;-50
2022/09/09 05:03:47;;;;;;;13.93;13.47;;;17.20;32.30;;;;;;5028723;28;20570;-48
2022/09/09 05:06:19;;;;;;;12.97;12.47;;;17.20;32.70;;;;;;5028994;28;20463;-54
2022/09/09 05:08:45;;;;;;;13.70;12.97;;;17.20;32.40;;;;;;5028371;28;20411;-48
2022/09/09 05:11:38;;;;;;;13.73;13.00;;;17.20;32.70;;;;;;5028912;28;20522;-52
2022/09/09 05:14:04;;;;;;;13.77;13.27;;;17.20;32.80;;;;;;5026426;28;20419;-49
2022/09/09 05:16:30;;;;;;;17.00;13.90;;;17.20;32.70;;;;;;5028830;28;20431;-48
2022/09/09 05:18:55;;;;;;;13.20;12.70;;;17.20;32.90;;;;;;5030913;28;20752;-49
2022/09/09 05:21:23;;;;;;;13.17;12.67;;;17.30;32.70;;;;;;5029527;28;20481;-49
2022/09/09 05:23:51;;;;;;;13.10;12.60;;;17.30;32.70;;;;;;5028824;28;20592;-48
2022/09/09 05:26:19;;;;;;;14.03;13.40;;;17.30;32.70;;;;;;5028877;28;20466;-48
2022/09/09 05:28:46;;;;;;;13.73;13.27;;;17.20;32.50;;;;;;5029093;28;20421;-49
2022/09/09 05:31:14;;;;;;;13.20;12.80;;;17.30;32.50;;;;;;5028998;28;20415;-49
2022/09/09 05:33:42;;;;;;;13.60;13.00;;;17.30;32.70;;;;;;5028969;28;20407;-49
2022/09/09 05:36:13;;;;;;;14.30;13.70;;;17.30;32.60;;;;;;5028925;28;20428;-47
2022/09/09 05:38:40;;;;;;;14.90;14.20;;;17.30;32.70;;;;;;5029211;28;20763;-49
2022/09/09 05:41:06;;;;;;;14.43;13.73;;;17.30;32.70;;;;;;5028143;28;20408;-52
2022/09/09 05:43:32;;;;;;;14.60;13.90;;;17.40;32.40;;;;;;5029032;28;20418;-48
2022/09/09 05:46:04;;;;;;;14.10;13.50;;;17.50;32.30;;;;;;5028346;28;20448;-52
2022/09/09 05:48:31;;;;;;;13.70;13.20;;;17.50;32.20;;;;;;5028670;28;20424;-50
2022/09/09 05:50:58;;;;;;;13.57;12.97;;;17.50;31.80;;;;;;5028780;28;20418;-50
2022/09/09 05:53:24;;;;;;;13.80;13.20;;;17.60;31.30;;;;;;5028838;28;20428;-52
2022/09/09 05:55:50;;;;;;;14.20;13.70;;;17.60;31.40;;;;;;5028049;28;20419;-53
2022/09/09 05:58:17;;;;;;;14.70;14.20;;;17.70;31.50;;;;;;5029901;28;20187;-52
2022/09/09 06:00:43;;;;;;;14.13;13.70;;;17.70;31.50;;;;;;5020714;28;20594;-52
2022/09/09 06:03:12;;;;;;;14.90;14.10;;;17.80;31.00;;;;;;4972978;28;20456;-53
2022/09/09 06:05:38;;;;;;;14.20;13.70;;;17.80;30.90;;;;;;4972323;28;20817;-53
2022/09/09 06:08:03;;;;;;;13.80;13.20;;;17.90;31.10;;;;;;4971390;28;20584;-54
2022/09/09 06:10:29;;;;;;;14.50;14.00;;;17.90;30.90;;;;;;4974269;28;20396;-49
2022/09/09 06:12:55;;;;;;;13.60;13.10;;;17.90;31.00;;;;;;4971774;28;20236;-52
2022/09/09 06:15:20;;;;;;;15.40;14.43;;;17.80;31.50;;;;;;4972603;28;20308;-51
2022/09/09 06:17:47;;;;;;;14.10;13.57;;;17.80;31.70;;;;;;4971208;28;20774;-50
2022/09/09 06:20:13;;;;;;;14.07;13.47;;;17.70;31.80;;;;;;4977461;28;20225;-50
2022/09/09 06:22:41;;;;;;;14.07;13.50;;;17.70;31.80;;;;;;4974288;28;20630;-49
2022/09/09 06:25:09;;;;;;;14.63;13.93;;;17.70;31.90;;;;;;4976692;28;20465;-52
2022/09/09 06:27:35;;;;;;;14.90;14.10;;;17.80;32.00;;;;;;4974274;28;20483;-51
2022/09/09 06:30:00;;;;;;;14.30;13.70;;;17.80;32.00;;;;;;4976460;28;20449;-50
2022/09/09 06:32:26;;;;;;;13.40;13.00;;;17.80;31.80;;;;;;4974834;28;20225;-53
2022/09/09 06:34:52;;;;;;;13.30;12.90;;;17.80;32.00;;;;;;4976807;28;20221;-50
2022/09/09 06:37:18;;;;;;;14.07;13.27;;;17.90;32.10;;;;;;4974906;28;20535;-49
2022/09/09 06:39:44;;;;;;;13.50;13.00;;;17.90;32.00;;;;;;4976763;28;20623;-52
2022/09/09 06:42:09;;;;;;;13.77;13.27;;;17.90;31.90;;;;;;4976053;28;20540;-47
2022/09/09 06:44:36;;;;;;;13.87;13.37;;;18.00;31.90;;;;;;4974978;28;20228;-49
2022/09/09 06:47:01;;;;;;;13.80;13.20;;;18.00;31.80;;;;;;4970685;28;20221;-50
2022/09/09 06:49:27;;;;;;;14.50;13.60;;;18.00;31.60;;;;;;4970510;28;20956;-52
2022/09/09 06:51:53;;;;;;;14.03;13.43;;;18.00;31.90;;;;;;4972563;28;20470;-49
2022/09/09 06:54:20;;;;;;;13.27;12.77;;;18.00;32.20;;;;;;4971346;28;20644;-51
2022/09/09 06:56:45;;;;;;;14.37;13.87;;;18.20;31.80;;;;;;4977648;28;20449;-48
2022/09/09 06:59:11;;;;;;;14.50;13.80;;;18.10;31.70;;;;;;4977683;28;20442;-50
2022/09/09 07:01:46;;;;;;;13.67;13.17;;;18.10;31.80;;;;;;4977567;28;20615;-51
2022/09/09 07:04:13;;;;;;;14.67;13.83;;;18.20;31.70;;;;;;4977679;28;20813;-52
2022/09/09 07:06:43;;;;;;;14.47;13.67;;;18.30;31.40;;;;;;4977375;28;20471;-50
2022/09/09 07:09:10;;;;;;;14.90;13.90;;;18.40;31.20;;;;;;4977659;28;20980;-53
2022/09/09 07:11:44;;;;;;;14.70;13.90;;;18.40;30.80;;;;;;4979254;28;20461;-51
2022/09/09 07:14:14;;;;;;;15.10;13.80;;;18.50;31.10;;;;;;4978643;28;20872;-53
2022/09/09 07:16:43;;;;;;;14.30;13.60;;;18.40;31.10;;;;;;4977657;28;20561;-52
2022/09/09 07:19:11;;;;;;;14.80;14.10;;;18.40;31.00;;;;;;4979208;28;20451;-53
2022/09/09 07:21:36;;;;;;;14.43;13.53;;;18.40;31.30;;;;;;4978773;28;20848;-54
2022/09/09 07:24:02;;;;;;;13.80;13.30;;;18.40;31.60;;;;;;4979391;28;20459;-52
2022/09/09 07:26:30;;;;;;;14.00;13.50;;;18.40;31.30;;;;;;4978844;28;20237;-51
2022/09/09 07:28:56;;;;;;;14.47;13.87;;;18.50;31.30;;;;;;4978301;28;20460;-54
2022/09/09 07:31:30;;;;;;;14.10;13.50;;;18.60;31.10;;;;;;4972523;28;20664;-55
2022/09/09 07:33:56;;;;;;;14.50;13.90;;;18.60;31.10;;;;;;4978120;28;20449;-55
2022/09/09 07:36:25;;;;;;;14.60;14.10;;;18.70;31.10;;;;;;4978601;28;21303;-54
2022/09/09 07:38:57;;;;;;;13.83;13.33;;;18.70;30.70;;;;;;4980544;28;20551;-55
2022/09/09 07:41:42;;;;;;;14.30;13.70;;;18.70;30.60;;;;;;4981572;28;20453;-54
2022/09/09 07:44:10;;;;;;;14.27;13.77;;;18.80;31.10;;;;;;4979803;28;20445;-52
2022/09/09 07:46:39;;;;;;;14.10;13.60;;;18.90;30.80;;;;;;4982458;28;20473;-54
2022/09/09 07:49:05;;;;;;;14.33;13.63;;;19.00;30.60;;;;;;4980196;28;20453;-54
2022/09/09 07:51:37;;;;;;;13.23;12.80;;;19.00;30.20;;;;;;4980194;28;20501;-53
2022/09/09 07:54:09;;;;;;;14.23;13.67;;;19.10;30.00;;;;;;4979842;28;21722;-54
2022/09/09 07:56:35;;;;;;;14.50;13.90;;;19.10;30.00;;;;;;4981350;28;20532;-53
2022/09/09 07:59:01;;;;;;;12.70;12.30;;;19.20;30.00;;;;;;4981327;28;20556;-54
2022/09/09 08:01:31;;;;;;;12.60;12.20;;;19.30;29.60;;;;;;4980672;28;20552;-50
2022/09/09 08:04:02;;;;;;;13.10;12.40;;;19.30;29.50;;;;;;4980015;28;20221;-56
2022/09/09 08:06:35;;;;;;;13.27;12.60;;;19.30;29.50;;;;;;4981393;28;21112;-54
2022/09/09 08:09:00;;;;;;;12.70;12.30;;;19.30;29.50;;;;;;4982789;28;20492;-52
2022/09/09 08:11:28;;;;;;;12.03;11.50;;;19.40;29.20;;;;;;4980848;28;20957;-55
2022/09/09 08:13:54;;;;;;;12.53;12.03;;;19.60;28.70;;;;;;4984513;28;20186;-52
2022/09/09 08:16:26;;;;;;;12.77;12.27;;;19.70;28.00;;;;;;4969365;28;20966;-54
2022/09/09 08:18:54;;;;;;;12.40;12.00;;;19.80;28.00;;;;;;4987984;28;20453;-52
2022/09/09 08:21:29;;;;;;;12.53;12.03;;;19.90;27.90;;;;;;4980015;28;20852;-51
2022/09/09 08:23:56;;;;;;;12.90;12.30;;;19.90;27.60;;;;;;4980112;28;20527;-54
2022/09/09 08:26:24;;;;;;;13.43;12.80;;;20.00;27.60;;;;;;4980061;28;20465;-55
2022/09/09 08:28:52;;;;;;;12.20;11.90;;;20.10;27.60;;;;;;4978078;28;20460;-52
2022/09/09 08:31:21;;;;;;;12.87;12.47;;;20.10;27.10;;;;;;4979361;28;20826;-54
2022/09/09 08:33:47;;;;;;;12.70;12.13;;;20.10;26.40;;;;;;4979641;28;20520;-52
2022/09/09 08:36:18;;;;;;;12.87;12.43;;;20.20;26.80;;;;;;4970812;28;20773;-51
2022/09/09 08:38:47;;;;;;;13.30;12.80;;;20.20;26.60;;;;;;4972893;28;20862;-53
2022/09/09 08:41:31;;;;;;;12.60;11.90;;;20.30;26.60;;;;;;4978481;28;20868;-54
2022/09/09 08:44:29;;;;;;;13.30;12.70;;;20.30;26.10;;;;;;4975134;28;20453;-51
2022/09/09 08:47:06;;;;;;;13.40;12.87;;;20.30;26.10;;;;;;4990509;28;20440;-53
2022/09/09 08:49:35;;;;;;;12.60;12.13;;;20.40;26.20;;;;;;4974975;28;20517;-53
2022/09/09 08:52:01;;;;;;;13.00;12.40;;;20.50;26.00;;;;;;4960034;28;20442;-52
2022/09/09 08:54:32;;;;;;;13.70;13.20;;;20.60;26.10;;;;;;4959921;28;20450;-53
2022/09/09 08:56:58;;;;;;;12.90;12.50;;;20.80;25.30;;;;;;4958386;28;20825;-53
2022/09/09 08:59:24;;;;;;;12.50;12.00;;;20.80;24.60;;;;;;4958075;28;20458;-54
2022/09/09 09:02:01;;;;;;;13.47;12.87;;;20.90;24.40;;;;;;4960273;28;20272;-53
2022/09/09 09:04:43;;;;;;;13.40;12.80;;;21.00;24.00;;;;;;4977124;28;20267;-51
2022/09/09 09:07:33;;;;;;;12.77;11.97;;;21.00;23.20;;;;;;4976230;28;21020;-50
2022/09/09 09:10:21;;;;;;;13.97;13.10;;;21.10;22.50;;;;;;4977021;28;20448;-52
2022/09/09 09:12:47;;;;;;;12.30;11.83;;;21.00;22.50;;;;;;4975348;28;20469;-50
2022/09/09 09:15:31;;;;;;;12.20;11.60;;;20.90;22.60;;;;;;4976901;28;20515;-52
2022/09/09 09:17:57;;;;;;;12.30;11.73;;;20.90;22.30;;;;;;4977187;28;20815;-51
2022/09/09 09:20:43;;;;;;;12.40;11.70;;;20.90;22.80;;;;;;4978625;28;20444;-52
2022/09/09 09:23:26;;;;;;;12.40;12.00;;;20.80;22.70;;;;;;4977081;28;20937;-52
2022/09/09 09:25:59;;;;;;;12.90;12.30;;;20.70;26.30;;;;;;4976675;28;21028;-53
2022/09/09 09:28:28;;;;;;;12.60;12.20;;;20.50;28.40;;;;;;4976425;28;20464;-51
2022/09/09 09:30:58;;;;;;;13.10;12.50;;;20.30;27.80;;;;;;4975240;28;20461;-51
2022/09/09 09:33:53;;;;;;;12.43;12.03;;;20.10;29.00;;;;;;4976822;28;20445;-51
2022/09/09 09:36:20;;;;;;;12.63;12.13;;;20.00;28.40;;;;;;4975828;28;20457;-51
2022/09/09 09:38:54;;;;;;;12.10;11.53;;;19.80;26.50;;;;;;4975200;28;20461;-55
2022/09/09 09:41:35;;;;;;;11.90;11.40;;;19.60;27.20;;;;;;4976639;28;20483;-54
2022/09/09 09:44:02;;;;;;;11.90;11.43;;;19.50;26.00;;;;;;4976608;28;20453;-53
2022/09/09 09:46:28;;;;;;;11.40;10.80;;;19.70;26.20;;;;;;4975718;28;20547;-52
2022/09/09 09:48:58;;;;;;;11.23;10.90;;;19.80;24.50;;;;;;4974759;28;20455;-50
2022/09/09 09:51:32;;;;;;;11.63;11.20;;;20.10;24.40;;;;;;4970576;28;20528;-53
2022/09/09 09:54:13;;;;;;;12.53;11.40;;;20.40;23.50;;;;;;4973864;28;20840;-50
2022/09/09 09:56:40;;;;;;;11.30;11.00;;;20.70;22.80;;;;;;4977528;28;20520;-54
2022/09/09 09:59:19;;;;;;;11.60;11.20;;;20.90;22.50;;;;;;4978920;28;20933;-53
2022/09/09 10:01:45;;;;;;;10.90;10.50;;;21.20;21.90;;;;;;4977706;28;20463;-52
2022/09/09 10:04:17;;;;;;;11.80;10.90;;;21.40;21.40;;;;;;4977982;28;20523;-51
2022/09/09 10:06:43;;;;;;;11.47;10.87;;;21.50;21.60;;;;;;4978485;28;20457;-54
2022/09/09 10:09:22;;;;;;;11.70;11.20;;;21.60;21.20;;;;;;4981971;28;20461;-53
2022/09/09 10:12:06;;;;;;;10.97;10.67;;;21.60;21.60;;;;;;4981093;28;20240;-53
2022/09/09 10:14:53;;;;;;;11.77;11.27;;;21.80;22.10;;;;;;4981182;28;21008;-52
2022/09/09 10:17:34;;;;;;;13.40;12.80;;;21.90;21.30;;;;;;4980618;28;20495;-50
2022/09/09 10:20:27;;;;;;;11.17;10.77;;;22.00;20.80;;;;;;4980059;28;20954;-53
2022/09/09 10:23:11;;;;;;;10.97;10.57;;;22.10;20.00;;;;;;4981856;28;20452;-51
2022/09/09 10:26:07;;;;;;;11.20;10.70;;;22.20;21.30;;;;;;4974981;28;20468;-52
2022/09/09 10:28:59;;;;;;;10.80;10.40;;;22.40;21.00;;;;;;4981244;28;20869;-49
2022/09/09 10:32:06;;;;;;;11.10;10.60;;;22.40;20.50;;;;;;4980753;28;20464;-48
2022/09/09 10:34:53;;;;;;;11.90;11.30;;;22.40;21.00;;;;;;4979115;28;20441;-54
2022/09/09 10:37:28;;;;;;;11.60;11.10;;;22.30;20.70;;;;;;4980583;28;20449;-50
2022/09/09 10:40:26;;;;;;;11.47;11.00;;;22.20;21.60;;;;;;4977508;28;20595;-51
2022/09/09 10:43:00;;;;;;;11.30;10.77;;;22.30;22.10;;;;;;4956972;28;21048;-51
2022/09/09 10:46:05;;;;;;;11.10;10.67;;;22.20;22.00;;;;;;4960925;28;20854;-49
2022/09/09 10:49:06;;;;;;;11.37;10.30;;;22.20;22.40;;;;;;4957234;28;20449;-50
2022/09/09 10:51:47;;;;;;;10.67;10.27;;;22.10;21.50;;;;;;4961790;28;20509;-48
2022/09/09 10:54:16;;;;;;;11.07;10.50;;;22.20;21.40;;;;;;4974693;28;20453;-50
2022/09/09 10:56:48;;;;;;;10.83;10.43;;;22.20;22.90;;;;;;4971430;28;20453;-53
2022/09/09 10:59:30;;;;;;;11.73;11.13;;;22.10;22.80;;;;;;4979959;28;20457;-49
2022/09/09 11:02:32;;;;;;;10.30;9.93;;;22.00;23.10;;;;;;4979711;28;20970;-49
2022/09/09 11:05:14;;;;;;;11.37;10.87;;;22.20;23.10;;;;;;4976143;28;20476;-49
2022/09/09 11:07:59;;;;;;;10.50;10.00;;;22.40;22.10;;;;;;4972097;28;20533;-49
2022/09/09 11:10:34;;;;;;;10.40;9.80;;;22.50;21.70;;;;;;4979525;28;21064;-48
2022/09/09 11:13:07;;;;;;;11.63;10.90;;;22.40;20.40;;;;;;4979552;28;20456;-48
2022/09/09 11:15:46;;;;;;;11.07;10.60;;;22.30;19.40;;;;;;4978845;28;20516;-48
2022/09/09 11:18:18;;;;;;;11.23;10.60;;;22.20;18.90;;;;;;4978507;28;20456;-50
2022/09/09 11:20:47;;;;;;;10.60;10.20;;;22.20;19.60;;;;;;4979883;28;20838;-52
2022/09/09 11:23:18;;;;;;;10.50;10.00;;;22.00;19.20;;;;;;4981767;28;20457;-51
2022/09/09 11:25:50;;;;;;;10.07;9.70;;;21.80;18.40;;;;;;4979910;28;20484;-49
2022/09/09 11:29:03;;;;;;;9.67;9.37;;;21.70;17.90;;;;;;4980676;28;20449;-48
2022/09/09 11:31:31;;;;;;;10.13;9.53;;;21.60;17.80;;;;;;4979286;28;20476;-48
2022/09/09 11:34:15;;;;;;;10.20;9.90;;;21.40;18.40;;;;;;4980247;28;21643;-49
2022/09/09 11:36:56;;;;;;;10.40;10.10;;;21.30;19.50;;;;;;4979050;28;20449;-48
2022/09/09 11:39:30;;;;;;;10.50;10.00;;;21.10;20.80;;;;;;4979922;28;20448;-51
2022/09/09 11:42:14;;;;;;;9.60;9.30;;;21.00;20.70;;;;;;4976918;28;20879;-47
2022/09/09 11:44:41;;;;;;;8.20;7.90;;;21.00;21.60;;;;;;4974828;28;20812;-46
2022/09/09 11:47:30;;;;;;;8.67;8.47;;;20.60;21.80;;;;;;4975747;28;20442;-48
2022/09/09 11:50:16;;;;;;;8.20;7.90;;;20.40;22.00;;;;;;4975850;28;20841;-48
2022/09/09 11:52:48;;;;;;;8.97;8.47;;;20.10;23.10;;;;;;4981688;28;20471;-50
2022/09/09 11:55:34;;;;;;;10.20;9.70;;;20.00;23.30;;;;;;4975866;28;20786;-47
2022/09/09 11:58:25;;;;;;;10.47;10.07;;;20.10;23.60;;;;;;4975322;28;20856;-50
2022/09/09 12:00:52;;;;;;;9.27;9.00;;;20.30;23.50;;;;;;4975083;28;20488;-48
2022/09/09 12:03:35;;;;;;;9.70;9.40;;;20.40;22.60;;;;;;4975820;28;20444;-50
2022/09/09 12:06:32;;;;;;;9.10;8.70;;;20.30;21.90;;;;;;4972123;28;20460;-50
2022/09/09 12:09:14;;;;;;;9.60;9.30;;;20.40;21.50;;;;;;4951881;28;20457;-48
2022/09/09 12:11:40;;;;;;;8.60;8.40;;;20.50;21.80;;;;;;4989397;28;20840;-50
2022/09/09 12:14:19;;;;;;;8.67;8.47;;;20.40;22.00;;;;;;4975221;28;20460;-50
2022/09/09 12:16:45;;;;;;;9.30;9.00;;;20.40;21.40;;;;;;4974267;28;20235;-50
2022/09/09 12:19:22;;;;;;;9.63;9.33;;;20.40;22.00;;;;;;4990998;28;20453;-49
2022/09/09 12:22:14;;;;;;;9.50;9.20;;;20.60;21.50;;;;;;4974180;28;20228;-49
2022/09/09 12:24:48;;;;;;;11.07;10.67;;;20.70;20.60;;;;;;4974009;28;20825;-51
2022/09/09 12:27:19;;;;;;;10.43;10.13;;;21.00;19.90;;;;;;4974799;28;20960;-48
2022/09/09 12:29:55;;;;;;;10.60;10.20;;;21.20;18.70;;;;;;4975540;28;20782;-50
2022/09/09 12:32:25;;;;;;;10.70;10.30;;;21.30;18.30;;;;;;4974435;28;20449;-50
2022/09/09 12:34:55;;;;;;;10.30;10.00;;;21.30;18.30;;;;;;4975827;28;20455;-50
2022/09/09 12:37:29;;;;;;;10.40;10.10;;;21.40;18.20;;;;;;4977321;28;20800;-52
2022/09/09 12:40:14;;;;;;;10.80;10.50;;;21.50;17.80;;;;;;4975898;28;20527;-61
2022/09/09 12:42:40;;;;;;;10.20;9.80;;;21.60;17.30;;;;;;4975308;28;20441;-52
2022/09/09 12:45:19;;;;;;;9.60;9.30;;;21.60;17.30;;;;;;4976436;28;21450;-49
2022/09/09 12:48:02;;;;;;;11.17;10.57;;;21.50;17.30;;;;;;4973908;28;20452;-48
2022/09/09 12:50:31;;;;;;;10.33;9.83;;;21.60;17.60;;;;;;4976815;28;21751;-50
2022/09/09 12:53:01;;;;;;;10.20;9.90;;;21.60;17.80;;;;;;4976490;28;20456;-52
2022/09/09 12:55:34;;;;;;;10.23;9.93;;;21.60;18.30;;;;;;4976524;28;20456;-52
2022/09/09 12:58:04;;;;;;;10.40;10.10;;;21.50;18.40;;;;;;4974238;28;20441;-51